Pocasset, MA (02559)

8:17 PM EST on February 10, 2016 (GMT -0500)
Dolphin Bay | | Change Station
CLOSE
Current Station
Personal Weather Station
Location: Bourne, MA
Elevation: 16 ft
Nearby Weather Stations
Active Advisory: Special Statement

Elev 16 ft 41.73 °N, 70.62 °W | Updated 12 minutes ago

Overcast
Overcast
33.6 °F
Feels Like 34 °F
N
3.0
Wind Variable Wind from West
Gusts 10.0 mph

Today
High -- | Low -- °F
--% Chance of Precip.
Yesterday
High -- | Low -- °F
Precip. -- in
Pressure 29.63 in
Visibility 9.0 miles
Clouds Few 4600 ft
Mostly Cloudy 6000 ft
Windchill 34 °F
Dew Point 33 °F
Humidity 97%
Rainfall 0.02 in
Snow Depth Not available.
6:45 AM 5:08 PM
Waxing Crescent, 8% visible
METAR KFMH 110115Z AUTO 25004KT 9SM FEW046 BKN060 M00/M01 A2963 RMK AO2
Pressure 29.63 in
Visibility 9.0 miles
Clouds Few 4600 ft
Mostly Cloudy 6000 ft
Windchill 34 °F
Dew Point 33 °F
Humidity 97%
Rainfall 0.02 in
Snow Depth Not available.
6:45 AM 5:08 PM
Waxing Crescent, 8% visible
METAR KFMH 110115Z AUTO 25004KT 9SM FEW046 BKN060 M00/M01 A2963 RMK AO2

10-Day Weather Forecast

Almanac

Astronomy

Feb. 10, 2016 Rise Set
Actual Time
Civil Twilight
Nautical Twilight
Astronomical Twilight
Moon
Length of Visible Light
Length of Day
Tomorrow will be .
, % of the Moon is Illuminated

Today's Extremes

State Highs State Lows

Community

WunderPhotos

Upload Photos

1,891,961 photos uploaded!

WunderBlog® & News

Nearby

Air Quality

  Air Quality AQ Index Pollutant
Not available.

Snow Depth

Station Depth Elevation

Earthquake Activity

City Distance Mag. Time & Date
Minimum magnitude displayed is 2.5.

Coastal Water Temperatures

Place Temperature

Stations

Nearby Weather Stations

Station Location Temp. Windchill Dew Point Humidity Wind Precip. Elev Updated Type
                   

Watches & Warnings

Special Statement
Issued: 7:53 PM EST Feb. 10, 2016 – National Weather Service

... Patchy black ice may develop this evening...

Isolated snow showers will be coming to an end this evening.
However... temperatures were dropping below freezing and winds
were rather light. This may allow patchy black ice to develop on
wet roads and walkways from the earlier snow showers. Motorists
are urged to drive with extra caution this evening as roads that
appear wet may be icy.


Frank


753 PM EST Wed Feb 10 2016

... Patchy black ice may develop this evening...

Isolated snow showers will be coming to an end this evening.
However... temperatures were dropping below freezing and winds
were rather light. This may allow patchy black ice to develop on
wet roads and walkways from the earlier snow showers. Motorists
are urged to drive with extra caution this evening as roads that
appear wet may be icy.


Frank